sensor_id;sensor_type;location;lat;lon;timestamp;temperature;humidity
24682;DHT22;12802;53.390;-2.328;2023-06-26T10:10:27;18.40;99.90
24682;DHT22;12802;53.390;-2.328;2023-06-26T10:12:59;18.40;99.90
24682;DHT22;12802;53.390;-2.328;2023-06-26T10:15:27;18.30;99.90
24682;DHT22;12802;53.390;-2.328;2023-06-26T10:17:56;18.30;99.90
24682;DHT22;12802;53.390;-2.328;2023-06-26T10:20:23;18.10;99.90
24682;DHT22;12802;53.390;-2.328;2023-06-26T10:22:50;18.10;99.90
24682;DHT22;12802;53.390;-2.328;2023-06-26T10:25:20;18.00;99.90
24682;DHT22;12802;53.390;-2.328;2023-06-26T10:27:50;18.00;99.90
24682;DHT22;12802;53.390;-2.328;2023-06-26T10:30:24;18.20;99.90
24682;DHT22;12802;53.390;-2.328;2023-06-26T10:32:52;18.40;99.90
24682;DHT22;12802;53.390;-2.328;2023-06-26T10:35:18;18.70;99.90
24682;DHT22;12802;53.390;-2.328;2023-06-26T10:37:47;19.00;99.90
24682;DHT22;12802;53.390;-2.328;2023-06-26T10:40:15;19.20;99.90
24682;DHT22;12802;53.390;-2.328;2023-06-26T10:42:46;19.30;99.90
24682;DHT22;12802;53.390;-2.328;2023-06-26T10:45:16;19.00;99.90
24682;DHT22;12802;53.390;-2.328;2023-06-26T10:47:46;18.70;99.90
24682;DHT22;12802;53.390;-2.328;2023-06-26T10:50:25;18.40;99.90
24682;DHT22;12802;53.390;-2.328;2023-06-26T10:56:03;19.00;99.90
24682;DHT22;12802;53.390;-2.328;2023-06-26T11:01:26;19.70;99.90
24682;DHT22;12802;53.390;-2.328;2023-06-26T11:04:07;20.00;99.90
24682;DHT22;12802;53.390;-2.328;2023-06-26T11:06:35;20.30;99.90
24682;DHT22;12802;53.390;-2.328;2023-06-26T11:09:07;20.10;99.90
24682;DHT22;12802;53.390;-2.328;2023-06-26T11:14:22;19.70;99.90
24682;DHT22;12802;53.390;-2.328;2023-06-26T11:16:48;19.70;99.90
24682;DHT22;12802;53.390;-2.328;2023-06-26T11:19:16;20.00;99.90
24682;DHT22;12802;53.390;-2.328;2023-06-26T11:21:42;20.00;99.90
24682;DHT22;12802;53.390;-2.328;2023-06-26T11:24:09;19.70;99.90
24682;DHT22;12802;53.390;-2.328;2023-06-26T11:26:39;19.60;99.90
24682;DHT22;12802;53.390;-2.328;2023-06-26T11:29:05;19.30;99.90
24682;DHT22;12802;53.390;-2.328;2023-06-26T11:31:35;19.10;99.90
24682;DHT22;12802;53.390;-2.328;2023-06-26T11:34:04;18.90;99.90
24682;DHT22;12802;53.390;-2.328;2023-06-26T11:36:31;18.80;99.90
24682;DHT22;12802;53.390;-2.328;2023-06-26T11:38:58;18.70;99.90
24682;DHT22;12802;53.390;-2.328;2023-06-26T11:41:27;18.70;99.90
24682;DHT22;12802;53.390;-2.328;2023-06-26T11:43:54;18.90;99.90
24682;DHT22;12802;53.390;-2.328;2023-06-26T11:46:21;18.80;99.90
24682;DHT22;12802;53.390;-2.328;2023-06-26T11:48:47;18.90;99.90
24682;DHT22;12802;53.390;-2.328;2023-06-26T11:51:14;18.80;99.90
24682;DHT22;12802;53.390;-2.328;2023-06-26T11:53:43;18.80;99.90
24682;DHT22;12802;53.390;-2.328;2023-06-26T11:56:14;18.80;99.90
24682;DHT22;12802;53.390;-2.328;2023-06-26T12:01:36;19.60;99.90
24682;DHT22;12802;53.390;-2.328;2023-06-26T12:04:07;19.90;99.90
24682;DHT22;12802;53.390;-2.328;2023-06-26T12:06:35;20.10;99.90
24682;DHT22;12802;53.390;-2.328;2023-06-26T12:09:02;20.20;99.90
24682;DHT22;12802;53.390;-2.328;2023-06-26T12:11:33;20.20;99.90
24682;DHT22;12802;53.390;-2.328;2023-06-26T12:14:00;20.50;99.90
24682;DHT22;12802;53.390;-2.328;2023-06-26T12:16:30;20.80;99.90
24682;DHT22;12802;53.390;-2.328;2023-06-26T12:19:06;20.80;99.90
24682;DHT22;12802;53.390;-2.328;2023-06-26T12:24:13;21.00;99.90
24682;DHT22;12802;53.390;-2.328;2023-06-26T12:26:46;21.00;99.90
24682;DHT22;12802;53.390;-2.328;2023-06-26T12:29:14;21.10;99.90
24682;DHT22;12802;53.390;-2.328;2023-06-26T12:31:42;21.00;99.90
24682;DHT22;12802;53.390;-2.328;2023-06-26T12:34:13;21.40;99.90
24682;DHT22;12802;53.390;-2.328;2023-06-26T12:36:44;21.50;99.90
24682;DHT22;12802;53.390;-2.328;2023-06-26T12:39:11;21.00;99.90
24682;DHT22;12802;53.390;-2.328;2023-06-26T12:44:20;20.90;99.90
24682;DHT22;12802;53.390;-2.328;2023-06-26T12:46:48;21.00;99.90
24682;DHT22;12802;53.390;-2.328;2023-06-26T12:49:15;20.90;99.90
24682;DHT22;12802;53.390;-2.328;2023-06-26T12:51:41;20.70;99.90
24682;DHT22;12802;53.390;-2.328;2023-06-26T12:54:08;20.50;99.90
24682;DHT22;12802;53.390;-2.328;2023-06-26T12:56:34;20.30;99.90
24682;DHT22;12802;53.390;-2.328;2023-06-26T12:59:00;20.30;99.90
24682;DHT22;12802;53.390;-2.328;2023-06-26T13:01:26;20.40;99.90
24682;DHT22;12802;53.390;-2.328;2023-06-26T13:03:54;20.30;99.90
24682;DHT22;12802;53.390;-2.328;2023-06-26T13:06:20;20.30;99.90
24682;DHT22;12802;53.390;-2.328;2023-06-26T13:08:47;20.40;99.90
24682;DHT22;12802;53.390;-2.328;2023-06-26T13:11:12;20.50;99.90
24682;DHT22;12802;53.390;-2.328;2023-06-26T13:13:38;20.50;99.90
24682;DHT22;12802;53.390;-2.328;2023-06-26T13:16:04;20.40;99.90
24682;DHT22;12802;53.390;-2.328;2023-06-26T13:18:30;20.20;99.90
24682;DHT22;12802;53.390;-2.328;2023-06-26T13:20:56;20.30;99.90
24682;DHT22;12802;53.390;-2.328;2023-06-26T13:23:22;20.50;99.90
24682;DHT22;12802;53.390;-2.328;2023-06-26T13:25:47;20.60;99.90
24682;DHT22;12802;53.390;-2.328;2023-06-26T13:28:13;20.50;99.90
24682;DHT22;12802;53.390;-2.328;2023-06-26T13:30:39;20.70;99.90
24682;DHT22;12802;53.390;-2.328;2023-06-26T13:33:05;20.50;99.90
24682;DHT22;12802;53.390;-2.328;2023-06-26T13:35:32;20.80;99.90
24682;DHT22;12802;53.390;-2.328;2023-06-26T13:37:57;21.00;99.90
24682;DHT22;12802;53.390;-2.328;2023-06-26T13:40:23;20.80;99.90
24682;DHT22;12802;53.390;-2.328;2023-06-26T13:42:49;20.70;99.90
24682;DHT22;12802;53.390;-2.328;2023-06-26T13:45:15;21.50;99.90
24682;DHT22;12802;53.390;-2.328;2023-06-26T13:47:40;22.10;99.90
24682;DHT22;12802;53.390;-2.328;2023-06-26T13:50:10;22.50;99.90
24682;DHT22;12802;53.390;-2.328;2023-06-26T13:52:36;22.70;99.90
24682;DHT22;12802;53.390;-2.328;2023-06-26T13:55:02;22.50;99.90
24682;DHT22;12802;53.390;-2.328;2023-06-26T13:57:30;21.90;99.90
24682;DHT22;12802;53.390;-2.328;2023-06-26T13:59:56;21.20;99.90
24682;DHT22;12802;53.390;-2.328;2023-06-26T14:02:22;20.90;99.90
24682;DHT22;12802;53.390;-2.328;2023-06-26T14:04:48;20.70;99.90
24682;DHT22;12802;53.390;-2.328;2023-06-26T14:07:14;20.50;99.90
24682;DHT22;12802;53.390;-2.328;2023-06-26T14:09:40;21.00;99.90
24682;DHT22;12802;53.390;-2.328;2023-06-26T14:12:07;21.10;99.90
24682;DHT22;12802;53.390;-2.328;2023-06-26T14:14:33;20.90;99.90
24682;DHT22;12802;53.390;-2.328;2023-06-26T14:16:58;20.60;99.90
24682;DHT22;12802;53.390;-2.328;2023-06-26T14:19:25;20.40;99.90
24682;DHT22;12802;53.390;-2.328;2023-06-26T14:21:51;20.20;99.90
24682;DHT22;12802;53.390;-2.328;2023-06-26T14:24:17;20.20;99.90
24682;DHT22;12802;53.390;-2.328;2023-06-26T14:26:43;20.10;99.90
24682;DHT22;12802;53.390;-2.328;2023-06-26T14:29:08;20.40;99.90
24682;DHT22;12802;53.390;-2.328;2023-06-26T14:31:34;21.20;99.90
24682;DHT22;12802;53.390;-2.328;2023-06-26T14:34:00;21.80;99.90
24682;DHT22;12802;53.390;-2.328;2023-06-26T14:36:28;22.70;99.90
24682;DHT22;12802;53.390;-2.328;2023-06-26T14:38:56;22.40;99.90
24682;DHT22;12802;53.390;-2.328;2023-06-26T14:41:22;22.00;99.90
24682;DHT22;12802;53.390;-2.328;2023-06-26T14:43:48;21.70;99.90
24682;DHT22;12802;53.390;-2.328;2023-06-26T14:46:14;21.50;99.90
24682;DHT22;12802;53.390;-2.328;2023-06-26T14:48:39;22.10;99.90
24682;DHT22;12802;53.390;-2.328;2023-06-26T14:51:05;22.40;99.90
24682;DHT22;12802;53.390;-2.328;2023-06-26T14:53:31;22.00;99.90
24682;DHT22;12802;53.390;-2.328;2023-06-26T14:55:56;21.60;99.90
24682;DHT22;12802;53.390;-2.328;2023-06-26T14:58:22;21.20;99.90
24682;DHT22;12802;53.390;-2.328;2023-06-26T15:00:48;20.90;99.90
24682;DHT22;12802;53.390;-2.328;2023-06-26T15:03:14;20.90;99.90
24682;DHT22;12802;53.390;-2.328;2023-06-26T15:05:40;20.80;99.90
24682;DHT22;12802;53.390;-2.328;2023-06-26T15:08:05;20.80;99.90
24682;DHT22;12802;53.390;-2.328;2023-06-26T15:10:31;20.60;99.90
24682;DHT22;12802;53.390;-2.328;2023-06-26T15:12:57;20.40;99.90
24682;DHT22;12802;53.390;-2.328;2023-06-26T15:15:24;20.80;99.90
24682;DHT22;12802;53.390;-2.328;2023-06-26T15:17:49;21.10;99.90
24682;DHT22;12802;53.390;-2.328;2023-06-26T15:20:15;21.60;99.90
24682;DHT22;12802;53.390;-2.328;2023-06-26T15:22:41;21.50;99.90
24682;DHT22;12802;53.390;-2.328;2023-06-26T15:25:07;21.70;99.90
24682;DHT22;12802;53.390;-2.328;2023-06-26T15:27:33;22.30;99.90
24682;DHT22;12802;53.390;-2.328;2023-06-26T15:29:59;22.70;99.90
24682;DHT22;12802;53.390;-2.328;2023-06-26T15:32:24;22.70;99.90
24682;DHT22;12802;53.390;-2.328;2023-06-26T15:34:50;22.60;99.90
24682;DHT22;12802;53.390;-2.328;2023-06-26T15:37:16;22.60;99.90
24682;DHT22;12802;53.390;-2.328;2023-06-26T15:39:42;22.20;99.90
24682;DHT22;12802;53.390;-2.328;2023-06-26T15:42:08;22.00;99.90
24682;DHT22;12802;53.390;-2.328;2023-06-26T15:44:34;21.50;99.90
24682;DHT22;12802;53.390;-2.328;2023-06-26T15:47:00;21.50;99.90
24682;DHT22;12802;53.390;-2.328;2023-06-26T15:49:25;21.70;99.90
24682;DHT22;12802;53.390;-2.328;2023-06-26T15:51:51;22.00;99.90
24682;DHT22;12802;53.390;-2.328;2023-06-26T15:54:17;22.40;99.90
24682;DHT22;12802;53.390;-2.328;2023-06-26T15:56:42;22.30;99.90
24682;DHT22;12802;53.390;-2.328;2023-06-26T15:59:09;22.20;99.90
24682;DHT22;12802;53.390;-2.328;2023-06-26T16:01:35;22.20;99.90
24682;DHT22;12802;53.390;-2.328;2023-06-26T16:04:00;22.50;99.90
24682;DHT22;12802;53.390;-2.328;2023-06-26T16:06:26;22.40;99.90
24682;DHT22;12802;53.390;-2.328;2023-06-26T16:08:52;22.10;99.90
24682;DHT22;12802;53.390;-2.328;2023-06-26T16:11:18;22.00;99.90
24682;DHT22;12802;53.390;-2.328;2023-06-26T16:13:45;21.70;99.90
24682;DHT22;12802;53.390;-2.328;2023-06-26T16:16:12;21.30;99.90
24682;DHT22;12802;53.390;-2.328;2023-06-26T16:18:39;21.30;99.90
24682;DHT22;12802;53.390;-2.328;2023-06-26T16:21:05;21.20;99.90
24682;DHT22;12802;53.390;-2.328;2023-06-26T16:23:31;21.10;99.90
24682;DHT22;12802;53.390;-2.328;2023-06-26T16:25:57;20.90;99.90
24682;DHT22;12802;53.390;-2.328;2023-06-26T16:28:23;20.80;99.90
24682;DHT22;12802;53.390;-2.328;2023-06-26T16:30:49;20.50;99.90
24682;DHT22;12802;53.390;-2.328;2023-06-26T16:33:15;20.50;99.90
24682;DHT22;12802;53.390;-2.328;2023-06-26T16:35:41;20.40;99.90
24682;DHT22;12802;53.390;-2.328;2023-06-26T16:38:07;20.60;99.90
24682;DHT22;12802;53.390;-2.328;2023-06-26T16:40:35;20.90;99.90
24682;DHT22;12802;53.390;-2.328;2023-06-26T16:43:01;21.00;99.90
24682;DHT22;12802;53.390;-2.328;2023-06-26T16:45:27;21.10;99.90
24682;DHT22;12802;53.390;-2.328;2023-06-26T16:47:53;21.20;99.90
24682;DHT22;12802;53.390;-2.328;2023-06-26T16:50:18;21.40;99.90
24682;DHT22;12802;53.390;-2.328;2023-06-26T16:52:45;21.50;99.90
24682;DHT22;12802;53.390;-2.328;2023-06-26T16:55:11;21.40;99.90
24682;DHT22;12802;53.390;-2.328;2023-06-26T16:57:37;21.40;99.90
24682;DHT22;12802;53.390;-2.328;2023-06-26T17:00:04;21.40;99.90
24682;DHT22;12802;53.390;-2.328;2023-06-26T17:02:30;21.20;99.90
24682;DHT22;12802;53.390;-2.328;2023-06-26T17:04:57;21.10;99.90
24682;DHT22;12802;53.390;-2.328;2023-06-26T17:07:23;21.20;99.90
24682;DHT22;12802;53.390;-2.328;2023-06-26T17:09:48;21.30;99.90
24682;DHT22;12802;53.390;-2.328;2023-06-26T17:12:14;21.30;99.90
24682;DHT22;12802;53.390;-2.328;2023-06-26T17:14:40;21.20;99.90
24682;DHT22;12802;53.390;-2.328;2023-06-26T17:17:07;21.10;99.90
24682;DHT22;12802;53.390;-2.328;2023-06-26T17:19:33;21.00;99.90
24682;DHT22;12802;53.390;-2.328;2023-06-26T17:22:01;20.70;99.90
24682;DHT22;12802;53.390;-2.328;2023-06-26T17:24:28;20.50;99.90
24682;DHT22;12802;53.390;-2.328;2023-06-26T17:26:54;20.40;99.90
24682;DHT22;12802;53.390;-2.328;2023-06-26T17:29:19;20.40;99.90
24682;DHT22;12802;53.390;-2.328;2023-06-26T17:31:45;20.30;99.90
24682;DHT22;12802;53.390;-2.328;2023-06-26T17:34:11;20.40;99.90
24682;DHT22;12802;53.390;-2.328;2023-06-26T17:36:36;20.50;99.90
24682;DHT22;12802;53.390;-2.328;2023-06-26T17:39:03;20.60;99.90
24682;DHT22;12802;53.390;-2.328;2023-06-26T17:41:31;20.60;99.90
24682;DHT22;12802;53.390;-2.328;2023-06-26T17:43:56;20.60;99.90
24682;DHT22;12802;53.390;-2.328;2023-06-26T17:46:22;20.60;99.90
24682;DHT22;12802;53.390;-2.328;2023-06-26T17:48:48;20.40;99.90
24682;DHT22;12802;53.390;-2.328;2023-06-26T17:51:14;20.30;99.90
24682;DHT22;12802;53.390;-2.328;2023-06-26T17:53:39;20.10;99.90
24682;DHT22;12802;53.390;-2.328;2023-06-26T17:56:05;20.10;99.90
24682;DHT22;12802;53.390;-2.328;2023-06-26T17:58:31;20.10;99.90
24682;DHT22;12802;53.390;-2.328;2023-06-26T18:00:56;20.10;99.90
24682;DHT22;12802;53.390;-2.328;2023-06-26T18:03:22;19.90;99.90
24682;DHT22;12802;53.390;-2.328;2023-06-26T18:05:48;20.00;99.90
24682;DHT22;12802;53.390;-2.328;2023-06-26T18:08:14;19.90;99.90
24682;DHT22;12802;53.390;-2.328;2023-06-26T18:10:40;19.90;99.90
24682;DHT22;12802;53.390;-2.328;2023-06-26T18:13:05;19.80;99.90
24682;DHT22;12802;53.390;-2.328;2023-06-26T18:15:31;19.60;99.90
24682;DHT22;12802;53.390;-2.328;2023-06-26T18:17:57;19.60;99.90
24682;DHT22;12802;53.390;-2.328;2023-06-26T18:20:23;19.60;99.90
24682;DHT22;12802;53.390;-2.328;2023-06-26T18:22:48;19.60;99.90
24682;DHT22;12802;53.390;-2.328;2023-06-26T18:25:16;19.50;99.90
24682;DHT22;12802;53.390;-2.328;2023-06-26T18:27:41;19.40;99.90
24682;DHT22;12802;53.390;-2.328;2023-06-26T18:30:07;19.30;99.90
24682;DHT22;12802;53.390;-2.328;2023-06-26T18:32:33;19.20;99.90
24682;DHT22;12802;53.390;-2.328;2023-06-26T18:34:59;19.10;99.90
24682;DHT22;12802;53.390;-2.328;2023-06-26T18:37:25;19.20;99.90
24682;DHT22;12802;53.390;-2.328;2023-06-26T18:39:50;19.00;99.90
24682;DHT22;12802;53.390;-2.328;2023-06-26T18:42:16;19.00;99.90
24682;DHT22;12802;53.390;-2.328;2023-06-26T18:44:42;18.90;99.90
24682;DHT22;12802;53.390;-2.328;2023-06-26T18:47:07;18.90;99.90
24682;DHT22;12802;53.390;-2.328;2023-06-26T18:49:33;19.00;99.90
24682;DHT22;12802;53.390;-2.328;2023-06-26T18:51:59;19.10;99.90
24682;DHT22;12802;53.390;-2.328;2023-06-26T18:54:25;19.10;99.90
24682;DHT22;12802;53.390;-2.328;2023-06-26T18:56:51;19.10;99.90
24682;DHT22;12802;53.390;-2.328;2023-06-26T18:59:16;19.00;99.90
24682;DHT22;12802;53.390;-2.328;2023-06-26T19:01:42;19.00;99.90
24682;DHT22;12802;53.390;-2.328;2023-06-26T19:04:09;19.00;99.90
24682;DHT22;12802;53.390;-2.328;2023-06-26T19:06:35;19.00;99.90
24682;DHT22;12802;53.390;-2.328;2023-06-26T19:09:00;18.80;99.90
24682;DHT22;12802;53.390;-2.328;2023-06-26T19:11:26;18.90;99.90
24682;DHT22;12802;53.390;-2.328;2023-06-26T19:13:52;18.90;99.90
24682;DHT22;12802;53.390;-2.328;2023-06-26T19:16:17;18.90;99.90
24682;DHT22;12802;53.390;-2.328;2023-06-26T19:18:43;18.70;99.90
24682;DHT22;12802;53.390;-2.328;2023-06-26T19:21:09;18.70;99.90
24682;DHT22;12802;53.390;-2.328;2023-06-26T19:23:36;18.70;99.90
24682;DHT22;12802;53.390;-2.328;2023-06-26T19:26:01;18.70;99.90
24682;DHT22;12802;53.390;-2.328;2023-06-26T19:28:27;18.70;99.90
24682;DHT22;12802;53.390;-2.328;2023-06-26T19:30:53;18.60;99.90
24682;DHT22;12802;53.390;-2.328;2023-06-26T19:33:19;18.50;99.90
24682;DHT22;12802;53.390;-2.328;2023-06-26T19:35:44;18.40;99.90
24682;DHT22;12802;53.390;-2.328;2023-06-26T19:38:10;18.50;99.90
24682;DHT22;12802;53.390;-2.328;2023-06-26T19:40:36;18.50;99.90
24682;DHT22;12802;53.390;-2.328;2023-06-26T19:43:03;18.50;99.90
24682;DHT22;12802;53.390;-2.328;2023-06-26T19:45:30;18.50;99.90
24682;DHT22;12802;53.390;-2.328;2023-06-26T19:47:56;18.40;99.90
24682;DHT22;12802;53.390;-2.328;2023-06-26T19:50:21;18.40;99.90
24682;DHT22;12802;53.390;-2.328;2023-06-26T19:52:48;18.40;99.90
24682;DHT22;12802;53.390;-2.328;2023-06-26T19:55:14;18.30;99.90
24682;DHT22;12802;53.390;-2.328;2023-06-26T19:57:41;18.30;99.90
24682;DHT22;12802;53.390;-2.328;2023-06-26T20:00:08;18.20;99.90
24682;DHT22;12802;53.390;-2.328;2023-06-26T20:02:37;18.10;99.90
24682;DHT22;12802;53.390;-2.328;2023-06-26T20:05:02;18.10;99.90
24682;DHT22;12802;53.390;-2.328;2023-06-26T20:07:29;18.10;99.90
24682;DHT22;12802;53.390;-2.328;2023-06-26T20:09:55;18.00;99.90
24682;DHT22;12802;53.390;-2.328;2023-06-26T20:12:20;18.00;99.90
24682;DHT22;12802;53.390;-2.328;2023-06-26T20:14:46;18.00;99.90
24682;DHT22;12802;53.390;-2.328;2023-06-26T20:17:12;18.00;99.90
24682;DHT22;12802;53.390;-2.328;2023-06-26T20:19:38;18.00;99.90
24682;DHT22;12802;53.390;-2.328;2023-06-26T20:22:04;18.00;99.90
24682;DHT22;12802;53.390;-2.328;2023-06-26T20:24:29;18.00;99.90
24682;DHT22;12802;53.390;-2.328;2023-06-26T20:27:00;18.00;99.90
24682;DHT22;12802;53.390;-2.328;2023-06-26T20:29:26;17.90;99.90
24682;DHT22;12802;53.390;-2.328;2023-06-26T20:31:52;17.80;99.90
24682;DHT22;12802;53.390;-2.328;2023-06-26T20:34:17;17.90;99.90
24682;DHT22;12802;53.390;-2.328;2023-06-26T20:36:44;17.90;99.90
24682;DHT22;12802;53.390;-2.328;2023-06-26T20:39:10;17.80;99.90
24682;DHT22;12802;53.390;-2.328;2023-06-26T20:41:36;17.80;99.90
24682;DHT22;12802;53.390;-2.328;2023-06-26T20:44:02;17.80;99.90
24682;DHT22;12802;53.390;-2.328;2023-06-26T20:46:29;17.70;99.90
24682;DHT22;12802;53.390;-2.328;2023-06-26T20:49:00;17.70;99.90
24682;DHT22;12802;53.390;-2.328;2023-06-26T20:51:26;17.60;99.90
24682;DHT22;12802;53.390;-2.328;2023-06-26T20:53:53;17.40;99.90
24682;DHT22;12802;53.390;-2.328;2023-06-26T20:56:20;17.40;99.90
24682;DHT22;12802;53.390;-2.328;2023-06-26T20:58:46;17.30;99.90
24682;DHT22;12802;53.390;-2.328;2023-06-26T21:01:12;17.30;99.90
24682;DHT22;12802;53.390;-2.328;2023-06-26T21:03:38;17.20;99.90
24682;DHT22;12802;53.390;-2.328;2023-06-26T21:06:03;17.20;99.90
24682;DHT22;12802;53.390;-2.328;2023-06-26T21:08:29;17.20;99.90
24682;DHT22;12802;53.390;-2.328;2023-06-26T21:10:55;17.30;99.90
24682;DHT22;12802;53.390;-2.328;2023-06-26T21:13:21;17.30;99.90
24682;DHT22;12802;53.390;-2.328;2023-06-26T21:15:46;17.30;99.90
24682;DHT22;12802;53.390;-2.328;2023-06-26T21:18:12;17.20;99.90
24682;DHT22;12802;53.390;-2.328;2023-06-26T21:20:38;17.20;99.90
24682;DHT22;12802;53.390;-2.328;2023-06-26T21:23:05;17.20;99.90
24682;DHT22;12802;53.390;-2.328;2023-06-26T21:25:30;17.20;99.90
24682;DHT22;12802;53.390;-2.328;2023-06-26T21:27:56;17.20;99.90
24682;DHT22;12802;53.390;-2.328;2023-06-26T21:30:22;17.20;99.90
24682;DHT22;12802;53.390;-2.328;2023-06-26T21:32:48;17.20;99.90
24682;DHT22;12802;53.390;-2.328;2023-06-26T21:35:16;17.20;99.90
24682;DHT22;12802;53.390;-2.328;2023-06-26T21:37:41;17.20;99.90
24682;DHT22;12802;53.390;-2.328;2023-06-26T21:40:08;17.20;99.90
24682;DHT22;12802;53.390;-2.328;2023-06-26T21:42:34;17.20;99.90
24682;DHT22;12802;53.390;-2.328;2023-06-26T21:44:59;17.10;99.90
24682;DHT22;12802;53.390;-2.328;2023-06-26T21:47:25;17.10;99.90
24682;DHT22;12802;53.390;-2.328;2023-06-26T21:49:51;17.00;99.90
24682;DHT22;12802;53.390;-2.328;2023-06-26T21:52:17;17.00;99.90
24682;DHT22;12802;53.390;-2.328;2023-06-26T21:54:42;17.00;99.90
24682;DHT22;12802;53.390;-2.328;2023-06-26T21:57:08;16.90;99.90
24682;DHT22;12802;53.390;-2.328;2023-06-26T21:59:35;16.90;99.90
24682;DHT22;12802;53.390;-2.328;2023-06-26T22:02:00;16.90;99.90
24682;DHT22;12802;53.390;-2.328;2023-06-26T22:04:26;16.90;99.90
24682;DHT22;12802;53.390;-2.328;2023-06-26T22:06:52;16.90;99.90
24682;DHT22;12802;53.390;-2.328;2023-06-26T22:09:19;16.80;99.90
24682;DHT22;12802;53.390;-2.328;2023-06-26T22:11:44;16.80;99.90
24682;DHT22;12802;53.390;-2.328;2023-06-26T22:14:10;16.80;99.90
24682;DHT22;12802;53.390;-2.328;2023-06-26T22:16:36;16.80;99.90
24682;DHT22;12802;53.390;-2.328;2023-06-26T22:19:02;16.70;99.90
24682;DHT22;12802;53.390;-2.328;2023-06-26T22:21:27;16.70;99.90
24682;DHT22;12802;53.390;-2.328;2023-06-26T22:23:53;16.70;99.90
24682;DHT22;12802;53.390;-2.328;2023-06-26T22:26:19;16.70;99.90
24682;DHT22;12802;53.390;-2.328;2023-06-26T22:28:45;16.70;99.90
24682;DHT22;12802;53.390;-2.328;2023-06-26T22:31:10;16.60;99.90
24682;DHT22;12802;53.390;-2.328;2023-06-26T22:33:36;16.60;99.90
24682;DHT22;12802;53.390;-2.328;2023-06-26T22:36:02;16.60;99.90
24682;DHT22;12802;53.390;-2.328;2023-06-26T22:38:28;16.50;99.90
24682;DHT22;12802;53.390;-2.328;2023-06-26T22:40:53;16.50;99.90
24682;DHT22;12802;53.390;-2.328;2023-06-26T22:43:19;16.50;99.90
24682;DHT22;12802;53.390;-2.328;2023-06-26T22:45:45;16.60;99.90
24682;DHT22;12802;53.390;-2.328;2023-06-26T22:48:11;16.50;99.90
24682;DHT22;12802;53.390;-2.328;2023-06-26T22:50:37;16.40;99.90
24682;DHT22;12802;53.390;-2.328;2023-06-26T22:53:03;16.40;99.90
24682;DHT22;12802;53.390;-2.328;2023-06-26T22:55:28;16.40;99.90
24682;DHT22;12802;53.390;-2.328;2023-06-26T22:57:57;16.40;99.90
24682;DHT22;12802;53.390;-2.328;2023-06-26T23:00:23;16.40;99.90
24682;DHT22;12802;53.390;-2.328;2023-06-26T23:02:48;16.30;99.90
24682;DHT22;12802;53.390;-2.328;2023-06-26T23:05:14;16.30;99.90
24682;DHT22;12802;53.390;-2.328;2023-06-26T23:07:40;16.30;99.90
24682;DHT22;12802;53.390;-2.328;2023-06-26T23:10:07;16.20;99.90
24682;DHT22;12802;53.390;-2.328;2023-06-26T23:12:33;16.20;99.90
24682;DHT22;12802;53.390;-2.328;2023-06-26T23:15:00;16.20;99.90
24682;DHT22;12802;53.390;-2.328;2023-06-26T23:17:26;16.20;99.90
24682;DHT22;12802;53.390;-2.328;2023-06-26T23:19:52;16.20;99.90
24682;DHT22;12802;53.390;-2.328;2023-06-26T23:22:18;16.20;99.90
24682;DHT22;12802;53.390;-2.328;2023-06-26T23:24:46;16.10;99.90
24682;DHT22;12802;53.390;-2.328;2023-06-26T23:27:13;16.20;99.90
24682;DHT22;12802;53.390;-2.328;2023-06-26T23:29:39;16.10;99.90
24682;DHT22;12802;53.390;-2.328;2023-06-26T23:32:07;16.10;99.90
24682;DHT22;12802;53.390;-2.328;2023-06-26T23:34:33;16.10;99.90
24682;DHT22;12802;53.390;-2.328;2023-06-26T23:37:08;16.00;99.90
24682;DHT22;12802;53.390;-2.328;2023-06-26T23:39:35;16.10;99.90
24682;DHT22;12802;53.390;-2.328;2023-06-26T23:42:04;16.10;99.90
24682;DHT22;12802;53.390;-2.328;2023-06-26T23:44:30;16.00;99.90
24682;DHT22;12802;53.390;-2.328;2023-06-26T23:47:00;16.00;99.90
24682;DHT22;12802;53.390;-2.328;2023-06-26T23:49:32;15.90;99.90
24682;DHT22;12802;53.390;-2.328;2023-06-26T23:51:58;15.80;99.90
24682;DHT22;12802;53.390;-2.328;2023-06-26T23:54:24;15.80;99.90
24682;DHT22;12802;53.390;-2.328;2023-06-26T23:56:50;15.80;99.90
24682;DHT22;12802;53.390;-2.328;2023-06-26T23:59:17;15.80;99.90
